Terminal Aerodrome Forecast
Issued by NWS

Home | Current Version | Previous Version | Text Only | Print | Product List | Glossary On
Versions: 1 2 3 4 5 6 7 8 9 10 11 12 13 14
186
FTUS41 KLWX 291438 AAA
TAFMTN
TAF AMD
KMTN 291438Z 2915/3012 25009KT 6SM -SHRA VCTS BKN060CB OVC250
     FM291600 22008KT P6SM BKN120
     FM292000 23009KT P6SM VCTS BKN060CB
     FM300200 VRB03KT P6SM BKN140
     FM300600 VRB03KT P6SM BKN030
     FM300900 07004KT 4SM BR BKN008=

USA.gov is the U.S. government's official web portal to all federal, state and local government web resources and services.